createdAt,value
2023-02-25T00:00:39.386Z,85.12
2023-02-25T00:05:43.844Z,83.79
2023-02-25T00:10:46.639Z,82.40
2023-02-25T00:15:49.394Z,83.56
2023-02-25T00:20:53.643Z,83.12
2023-02-25T00:26:00.151Z,82.62
2023-02-25T00:31:09.174Z,83.16
2023-02-25T00:36:18.847Z,82.54
2023-02-25T00:41:24.149Z,81.79
2023-02-25T00:46:27.754Z,82.27
2023-02-25T00:51:34.125Z,82.80
2023-02-25T00:56:37.176Z,81.19
2023-02-25T01:01:40.328Z,82.26
2023-02-25T01:06:45.321Z,82.40
2023-02-25T01:11:49.591Z,83.09
2023-02-25T01:16:53.837Z,83.00
2023-02-25T01:21:59.687Z,82.89
2023-02-25T01:27:04.021Z,81.74
2023-02-25T01:32:08.804Z,83.00
2023-02-25T01:37:13.094Z,82.63
2023-02-25T01:42:17.720Z,83.26
2023-02-25T01:47:21.225Z,82.85
2023-02-25T01:52:26.637Z,83.57
2023-02-25T01:57:29.419Z,82.78
2023-02-25T02:02:34.135Z,82.51
2023-02-25T02:07:42.635Z,83.16
2023-02-25T02:12:48.090Z,83.31
2023-02-25T02:17:57.764Z,83.72
2023-02-25T02:23:22.122Z,82.21
2023-02-25T02:28:47.271Z,83.17
2023-02-25T02:34:00.632Z,83.44
2023-02-25T02:39:09.926Z,83.84
2023-02-25T02:44:16.702Z,84.73
2023-02-25T02:49:25.295Z,84.71
2023-02-25T02:54:33.284Z,84.49
2023-02-25T02:59:42.967Z,83.83
2023-02-25T03:04:51.316Z,84.27
2023-02-25T03:09:58.074Z,83.86
2023-02-25T03:15:02.258Z,84.31
2023-02-25T03:20:14.220Z,84.94
2023-02-25T03:25:22.011Z,84.15
2023-02-25T03:30:32.630Z,83.73
2023-02-25T03:35:39.974Z,83.15
2023-02-25T03:40:44.628Z,84.13
2023-02-25T03:45:47.706Z,83.68
2023-02-25T03:50:59.240Z,83.53
2023-02-25T03:56:06.390Z,85.00
2023-02-25T04:01:17.001Z,84.21
2023-02-25T04:06:24.744Z,82.85
2023-02-25T04:11:28.068Z,85.01
2023-02-25T04:16:30.985Z,83.90
2023-02-25T04:21:39.512Z,84.73
2023-02-25T04:26:42.317Z,85.18
2023-02-25T04:31:45.402Z,85.03
2023-02-25T04:36:49.940Z,84.75
2023-02-25T04:41:52.703Z,84.47
2023-02-25T04:46:56.072Z,83.69
2023-02-25T04:52:00.233Z,85.16
2023-02-25T04:57:02.982Z,84.26
2023-02-25T05:02:06.041Z,85.28
2023-02-25T05:07:10.640Z,85.66
2023-02-25T05:12:13.515Z,84.76
2023-02-25T05:17:16.875Z,84.01
2023-02-25T05:22:21.054Z,84.53
2023-02-25T05:27:23.868Z,84.93
2023-02-25T05:32:26.820Z,85.30
2023-02-25T05:37:32.387Z,85.33
2023-02-25T05:42:35.170Z,86.66
2023-02-25T05:47:38.000Z,86.36
2023-02-25T05:52:42.146Z,84.63
2023-02-25T05:57:44.959Z,83.50
2023-02-25T06:02:48.136Z,83.58
2023-02-25T06:07:52.348Z,83.53
2023-02-25T06:12:55.134Z,83.00
2023-02-25T06:17:57.999Z,83.32
2023-02-25T06:23:02.218Z,83.21
2023-02-25T06:28:05.473Z,83.31
2023-02-25T06:33:08.559Z,83.03
2023-02-25T06:38:12.826Z,82.41
2023-02-25T06:43:15.853Z,83.07
2023-02-25T06:48:18.632Z,82.54
2023-02-25T06:53:24.311Z,82.19
2023-02-25T06:58:27.227Z,82.19
2023-02-25T07:03:30.017Z,82.24
2023-02-25T07:08:34.382Z,81.58
2023-02-25T07:13:37.801Z,80.50
2023-02-25T07:18:40.664Z,80.64
2023-02-25T07:23:46.419Z,79.44
2023-02-25T07:28:49.267Z,79.32
2023-02-25T07:33:52.912Z,78.50
2023-02-25T07:38:57.598Z,79.09
2023-02-25T07:44:00.518Z,76.49
2023-02-25T07:49:03.547Z,75.17
2023-02-25T07:54:08.165Z,76.26
2023-02-25T07:59:11.365Z,74.07
2023-02-25T08:04:14.366Z,73.01
2023-02-25T08:09:19.056Z,71.88
2023-02-25T08:14:22.708Z,72.49
2023-02-25T08:19:25.616Z,71.44
2023-02-25T08:24:29.791Z,72.14
2023-02-25T08:29:32.599Z,72.69
2023-02-25T08:34:36.066Z,72.51
2023-02-25T08:39:40.316Z,71.40
2023-02-25T08:44:43.300Z,69.20
2023-02-25T08:49:47.557Z,69.21
2023-02-25T08:54:52.007Z,71.14
2023-02-25T08:59:55.192Z,72.87
2023-02-25T09:04:58.018Z,71.13
2023-02-25T09:10:04.206Z,68.49
2023-02-25T09:15:08.611Z,68.24
2023-02-25T09:20:12.372Z,66.61
2023-02-25T09:25:16.683Z,63.53
2023-02-25T09:30:19.578Z,58.97
2023-02-25T09:35:22.572Z,55.58
2023-02-25T09:40:26.949Z,55.14
2023-02-25T09:45:34.115Z,52.08
2023-02-25T09:50:43.371Z,51.25
2023-02-25T09:55:50.721Z,54.78
2023-02-25T10:01:04.308Z,61.77
2023-02-25T10:06:15.324Z,64.13
2023-02-25T10:11:30.481Z,66.13
2023-02-25T10:16:43.882Z,66.20
2023-02-25T10:22:09.864Z,66.14
2023-02-25T10:27:21.685Z,65.52
2023-02-25T10:32:26.958Z,64.61
2023-02-25T10:37:33.906Z,63.57
2023-02-25T10:42:38.591Z,60.77
2023-02-25T10:47:43.719Z,54.98
2023-02-25T10:53:06.055Z,49.53
2023-02-25T10:58:27.084Z,48.45
2023-02-25T11:03:32.605Z,48.63
2023-02-25T11:08:36.935Z,48.60
2023-02-25T11:13:41.583Z,42.64
2023-02-25T11:18:44.476Z,40.25
2023-02-25T11:23:49.375Z,41.91
2023-02-25T11:28:53.710Z,44.45
2023-02-25T11:34:01.140Z,43.38
2023-02-25T11:39:08.537Z,41.36
2023-02-25T11:44:23.811Z,37.89
2023-02-25T11:49:35.474Z,35.56
2023-02-25T11:54:50.023Z,35.42
2023-02-25T12:00:06.464Z,39.60
2023-02-25T12:05:35.215Z,42.78
2023-02-25T12:11:09.077Z,38.89
2023-02-25T12:16:44.505Z,39.75
2023-02-25T12:22:23.722Z,41.20
2023-02-25T12:28:12.031Z,43.27
2023-02-25T12:33:37.834Z,41.80
2023-02-25T12:39:12.027Z,39.02
2023-02-25T12:44:52.848Z,39.56
2023-02-25T12:50:09.230Z,39.86
2023-02-25T12:55:43.088Z,40.77
2023-02-25T13:01:04.154Z,41.91
2023-02-25T13:06:32.384Z,42.35
2023-02-25T13:12:09.996Z,43.14
2023-02-25T13:17:34.391Z,42.59
2023-02-25T13:22:53.389Z,43.62
2023-02-25T13:28:08.451Z,38.51
2023-02-25T13:33:26.847Z,41.34
2023-02-25T13:38:42.543Z,44.26
2023-02-25T13:43:56.100Z,46.23
2023-02-25T13:49:23.197Z,45.49
2023-02-25T13:55:02.311Z,41.67
2023-02-25T14:00:40.742Z,40.23
2023-02-25T14:06:03.295Z,41.60
2023-02-25T14:11:26.930Z,42.36
2023-02-25T14:16:44.865Z,40.14
2023-02-25T14:22:07.270Z,36.21
2023-02-25T14:27:21.951Z,36.57
2023-02-25T14:32:43.949Z,38.88
2023-02-25T14:37:58.123Z,38.31
2023-02-25T14:43:16.441Z,36.75
2023-02-25T14:48:26.969Z,35.28
2023-02-25T14:53:53.306Z,37.21
2023-02-25T14:59:42.470Z,37.36
2023-02-25T15:05:20.003Z,36.16
2023-02-25T15:10:34.686Z,34.76
2023-02-25T15:15:55.610Z,34.10
2023-02-25T15:21:00.461Z,33.76
2023-02-25T15:26:22.808Z,34.21
2023-02-25T15:31:29.832Z,35.42
2023-02-25T15:36:43.588Z,37.61
2023-02-25T15:41:59.953Z,39.86
2023-02-25T15:47:24.889Z,40.51
2023-02-25T15:53:02.712Z,40.94
2023-02-25T15:58:40.150Z,41.26
2023-02-25T16:03:43.786Z,42.01
2023-02-25T16:08:53.650Z,42.29
2023-02-25T16:13:56.682Z,42.94
2023-02-25T16:19:01.275Z,43.59
2023-02-25T16:24:08.975Z,43.61
2023-02-25T16:29:26.628Z,43.14
2023-02-25T16:34:35.874Z,43.50
2023-02-25T16:39:40.637Z,44.23
2023-02-25T16:44:56.264Z,45.54
2023-02-25T16:50:01.486Z,46.23
2023-02-25T16:55:12.383Z,47.35
2023-02-25T17:00:19.897Z,48.06
2023-02-25T17:05:25.338Z,48.53
2023-02-25T17:10:33.565Z,49.10
2023-02-25T17:15:38.153Z,49.44
2023-02-25T17:20:42.098Z,50.24
2023-02-25T17:25:49.857Z,50.86
2023-02-25T17:30:53.158Z,51.60
2023-02-25T17:35:59.891Z,52.31
2023-02-25T17:41:04.800Z,53.08
2023-02-25T17:46:18.553Z,53.15
2023-02-25T17:51:31.663Z,53.69
2023-02-25T17:56:38.190Z,52.89
2023-02-25T18:01:49.511Z,52.86
2023-02-25T18:06:52.754Z,53.25
2023-02-25T18:11:59.330Z,53.91
2023-02-25T18:17:13.283Z,54.22
2023-02-25T18:22:35.062Z,54.34
2023-02-25T18:27:39.234Z,54.57
2023-02-25T18:32:42.006Z,54.60
2023-02-25T18:37:47.290Z,55.29
2023-02-25T18:42:51.511Z,55.92
2023-02-25T18:47:56.643Z,55.74
2023-02-25T18:53:00.186Z,55.99
2023-02-25T18:58:04.818Z,55.72
2023-02-25T19:03:09.947Z,55.94
2023-02-25T19:08:14.855Z,55.89
2023-02-25T19:13:24.693Z,56.66
2023-02-25T19:18:27.726Z,55.84
2023-02-25T19:23:30.670Z,55.13
2023-02-25T19:28:34.868Z,55.66
2023-02-25T19:33:37.690Z,56.88
2023-02-25T19:38:40.533Z,57.34
2023-02-25T19:43:44.737Z,58.61
2023-02-25T19:48:47.514Z,60.61
2023-02-25T19:53:50.370Z,62.05
2023-02-25T19:58:58.960Z,62.57
2023-02-25T20:04:02.394Z,63.11
2023-02-25T20:09:07.855Z,63.42
2023-02-25T20:14:13.803Z,63.73
2023-02-25T20:19:16.639Z,63.89
2023-02-25T20:24:19.488Z,64.16
2023-02-25T20:29:24.008Z,64.45
2023-02-25T20:34:27.557Z,64.57
2023-02-25T20:39:45.411Z,64.90
2023-02-25T20:44:51.547Z,65.21
2023-02-25T20:49:55.866Z,65.64
2023-02-25T20:54:59.032Z,66.66
2023-02-25T21:00:03.386Z,67.21
2023-02-25T21:05:06.871Z,67.83
2023-02-25T21:10:11.167Z,68.95
2023-02-25T21:15:15.477Z,69.19
2023-02-25T21:20:18.313Z,69.61
2023-02-25T21:25:21.422Z,69.86
2023-02-25T21:30:26.586Z,70.39
2023-02-25T21:35:29.457Z,70.53
2023-02-25T21:40:32.328Z,70.51
2023-02-25T21:45:37.106Z,70.58
2023-02-25T21:50:45.442Z,70.63
2023-02-25T21:55:48.807Z,70.26
2023-02-25T22:00:52.978Z,70.70
2023-02-25T22:05:55.819Z,70.51
2023-02-25T22:10:58.680Z,70.38
2023-02-25T22:16:04.321Z,70.36
2023-02-25T22:21:09.590Z,70.39
2023-02-25T22:26:14.912Z,70.46
2023-02-25T22:31:19.910Z,70.40
2023-02-25T22:36:23.217Z,70.22
2023-02-25T22:41:28.201Z,70.06
2023-02-25T22:46:35.938Z,69.91
2023-02-25T22:51:42.013Z,69.69
2023-02-25T22:56:46.072Z,69.79
2023-02-25T23:01:50.254Z,69.42
2023-02-25T23:06:55.639Z,69.86
2023-02-25T23:11:59.845Z,69.89
2023-02-25T23:17:04.514Z,69.48
2023-02-25T23:22:09.573Z,69.66
2023-02-25T23:27:12.284Z,69.60
2023-02-25T23:32:16.387Z,69.28
2023-02-25T23:37:19.205Z,69.11
2023-02-25T23:42:21.942Z,69.15
2023-02-25T23:47:26.017Z,69.23
2023-02-25T23:52:28.883Z,69.13
2023-02-25T23:57:31.736Z,68.95
